Hackett, Minnesota
Current Conditions -  °F | °C
As of 12:57 PM on Thursday 30 Oct 2014 (Local Time) from KBDE Reporting Station
Light Snow Light Snow  
Wind Chill: 22°   Ceiling: 1800
Heat Index: 34°   Visibility: 1.7mi
Dew Point: 31°   Wind: 23mph
Humidity: 89%   Direction: 330°NNW
Pressure: 30.19"   Gusts: 33mph
Location:  48.5595°N, 94.661°W
Report Text: KBDE 301757Z AUTO 33020G29KT 1 3/4SM -SN BR FEW012 BKN018 OVC044 01/M01 A3019 RMK AO2 P0000 T00111006 TSNO
Loading
Personal Weather Stations






























Interactive Weather Map
Tropical Storm Tracking
New forecast layout! Learn more

10-Day Weather Forecast

Advertisements
Track Severe Weather on mobile